Time;durP1;ratioP1;P1;durP2;ratioP2;P2;SDS_P1;SDS_P2;PMS_P1;PMS_P2;Temp;Humidity;BMP_temperature;BMP_pressure;BME280_temperature;BME280_humidity;BME280_pressure;Samples;Min_cycle;Max_cycle;Signal;HPM_P1;HPM_P2
2022/05/11 00:00:45;;;;;;;1.45;1.35;;;;;;;20.79;45.52;99992.77;1815089;79;21379;-66
2022/05/11 00:03:11;;;;;;;1.50;1.40;;;;;;;20.78;45.53;99992.48;1816176;77;21130;-66
2022/05/11 00:05:38;;;;;;;1.45;1.35;;;;;;;20.76;45.54;99987.00;1815009;79;21529;-66
2022/05/11 00:08:06;;;;;;;1.70;1.55;;;;;;;20.76;45.56;99989.70;1814960;79;21029;-66
2022/05/11 00:10:32;;;;;;;1.40;1.30;;;;;;;20.74;45.57;99991.81;1814957;79;21049;-66
2022/05/11 00:12:59;;;;;;;1.87;1.70;;;;;;;20.73;45.56;99991.53;1815128;79;21073;-65
2022/05/11 00:15:26;;;;;;;1.45;1.35;;;;;;;20.70;45.53;99988.73;1815027;79;21323;-65
2022/05/11 00:17:52;;;;;;;1.50;1.40;;;;;;;20.70;45.55;99992.78;1815399;77;20994;-66
2022/05/11 00:20:19;;;;;;;1.40;1.30;;;;;;;20.70;45.57;99991.97;1815307;77;21025;-66
2022/05/11 00:22:46;;;;;;;2.92;1.52;;;;;;;20.69;45.59;99991.69;1815144;79;21049;-66
2022/05/11 00:25:14;;;;;;;1.50;1.40;;;;;;;20.67;45.61;99989.72;1815403;79;21024;-67
2022/05/11 00:27:42;;;;;;;1.62;1.52;;;;;;;20.66;45.63;99990.78;1828042;77;21084;-66
2022/05/11 00:30:11;;;;;;;1.40;1.30;;;;;;;20.64;45.62;99989.66;1848638;77;21067;-66
2022/05/11 00:32:39;;;;;;;1.30;1.20;;;;;;;20.64;45.63;99992.89;1848592;77;21049;-66
2022/05/11 00:35:07;;;;;;;2.02;1.80;;;;;;;20.61;45.61;99989.59;1845252;77;21569;-66
2022/05/11 00:37:33;;;;;;;1.77;1.67;;;;;;;20.61;45.64;99982.84;1815224;79;21013;-66
2022/05/11 00:40:00;;;;;;;1.42;1.32;;;;;;;20.60;45.63;99985.23;1815326;79;21115;-66
2022/05/11 00:42:27;;;;;;;2.22;1.72;;;;;;;20.59;45.61;99984.08;1815029;79;20986;-66
2022/05/11 00:44:54;;;;;;;1.55;1.42;;;;;;;20.57;45.62;99983.48;1815212;79;21072;-67
2022/05/11 00:47:28;;;;;;;1.82;1.72;;;;;;;20.56;45.64;99986.72;1815346;77;21509;-66
2022/05/11 00:49:59;;;;;;;1.32;1.22;;;;;;;20.55;45.63;99982.39;1821676;78;21068;-67
2022/05/11 00:52:43;;;;;;;1.90;1.70;;;;;;;20.55;45.65;99990.98;1823628;77;21549;-66
2022/05/11 00:55:30;;;;;;;1.62;1.30;;;;;;;20.53;45.66;99991.23;1823855;78;21003;-67
2022/05/11 00:58:02;;;;;;;1.60;1.50;;;;;;;20.52;45.67;99987.41;1823801;78;21009;-67
2022/05/11 01:00:29;;;;;;;1.90;1.70;;;;;;;20.50;45.66;99988.17;1823849;78;21465;-66
2022/05/11 01:03:09;;;;;;;1.98;1.67;;;;;;;20.48;45.70;99985.69;1823786;78;21071;-66
2022/05/11 01:05:35;;;;;;;1.67;1.45;;;;;;;20.47;45.73;99986.72;1823911;78;21110;-66
2022/05/11 01:08:02;;;;;;;1.60;1.50;;;;;;;20.46;45.72;99988.33;1823812;78;20997;-66
2022/05/11 01:10:30;;;;;;;1.62;1.52;;;;;;;20.45;45.71;99993.41;1824924;77;21084;-66
2022/05/11 01:12:59;;;;;;;1.70;1.60;;;;;;;20.43;45.76;99986.35;1823883;78;21024;-66
2022/05/11 01:15:26;;;;;;;1.47;1.30;;;;;;;20.42;45.74;99989.30;1824016;78;21043;-66
2022/05/11 01:17:53;;;;;;;1.70;1.60;;;;;;;20.40;45.73;99984.13;1823966;78;21750;-66
2022/05/11 01:20:22;;;;;;;1.45;1.35;;;;;;;20.41;45.75;99988.98;1823741;78;21021;-66
2022/05/11 01:23:04;;;;;;;2.35;1.90;;;;;;;20.39;45.74;99986.51;1823821;78;21541;-66
2022/05/11 01:25:30;;;;;;;1.80;1.70;;;;;;;20.38;45.75;99987.58;1823716;78;21032;-66
2022/05/11 01:28:04;;;;;;;1.62;1.50;;;;;;;20.37;45.79;99989.14;1840852;77;21048;-66
2022/05/11 01:30:32;;;;;;;2.02;1.82;;;;;;;20.36;45.76;99991.56;1857354;77;21135;-66
2022/05/11 01:32:58;;;;;;;1.50;1.37;;;;;;;20.34;45.77;99985.54;1857380;77;21493;-65
2022/05/11 01:35:48;;;;;;;1.95;1.82;;;;;;;20.34;45.75;99989.59;1857368;77;21009;-67
2022/05/11 01:38:49;;;;;;;1.67;1.57;;;;;;;20.32;45.74;99983.59;1857479;77;21073;-66
2022/05/11 01:41:35;;;;;;;1.62;1.52;;;;;;;20.31;45.76;99981.96;1857806;77;21076;-65
2022/05/11 01:44:08;;;;;;;1.72;1.60;;;;;;;20.28;45.80;99986.45;1840809;77;21135;-65
2022/05/11 01:46:36;;;;;;;1.70;1.60;;;;;;;20.26;45.79;99981.27;1824026;78;21012;-66
2022/05/11 01:49:03;;;;;;;2.05;1.85;;;;;;;20.25;45.80;99974.78;1823646;78;21083;-66
2022/05/11 01:51:30;;;;;;;1.60;1.50;;;;;;;20.24;45.83;99979.33;1823692;78;20993;-66
2022/05/11 01:53:56;;;;;;;2.05;1.77;;;;;;;20.21;45.85;99976.56;1823827;78;20969;-67
2022/05/11 01:56:24;;;;;;;2.12;1.92;;;;;;;20.21;45.80;99974.41;1823660;78;21117;-65
2022/05/11 01:58:51;;;;;;;1.67;1.57;;;;;;;20.21;45.84;99971.70;1823801;78;21012;-66
2022/05/11 02:01:23;;;;;;;1.62;1.52;;;;;;;20.19;45.80;99975.16;1825132;77;21076;-66
2022/05/11 02:03:49;;;;;;;1.67;1.57;;;;;;;20.18;45.83;99974.31;1823004;78;21017;-66
2022/05/11 02:09:02;;;;;;;2.30;2.10;;;;;;;20.16;45.80;99965.63;1823830;78;21134;-66
2022/05/11 02:11:28;;;;;;;1.82;1.57;;;;;;;20.15;45.81;99962.64;1823639;78;21017;-66
2022/05/11 02:13:57;;;;;;;2.00;1.80;;;;;;;20.14;45.79;99965.02;1823714;78;21009;-66
2022/05/11 02:16:24;;;;;;;2.70;1.70;;;;;;;20.13;45.83;99961.23;1823799;78;20981;-66
2022/05/11 02:18:52;;;;;;;2.33;1.90;;;;;;;20.13;45.80;99961.23;1825000;77;21041;-66
2022/05/11 02:21:19;;;;;;;1.52;1.42;;;;;;;20.12;45.83;99964.96;1823699;78;21118;-65
2022/05/11 02:23:50;;;;;;;2.08;1.98;;;;;;;20.10;45.86;99966.53;1823693;78;21045;-66
2022/05/11 02:26:14;;;;;;;2.08;1.87;;;;;;;20.08;45.82;99961.89;1829159;77;21084;-66
2022/05/11 02:28:41;;;;;;;2.00;1.80;;;;;;;20.09;45.81;99964.05;1854434;77;20989;-65
2022/05/11 02:31:07;;;;;;;1.85;1.75;;;;;;;20.06;45.81;99963.98;1855014;77;21032;-66
2022/05/11 02:33:34;;;;;;;2.12;1.92;;;;;;;20.07;45.82;99962.10;1854900;77;22034;-65
2022/05/11 02:36:00;;;;;;;1.70;1.60;;;;;;;20.06;45.81;99965.33;1827555;77;21041;-65
2022/05/11 02:38:30;;;;;;;1.60;1.50;;;;;;;20.05;45.84;99965.05;1823654;78;21012;-66
2022/05/11 02:40:56;;;;;;;2.25;1.90;;;;;;;20.06;45.86;99967.22;1824136;78;21061;-67
2022/05/11 02:43:23;;;;;;;1.87;1.72;;;;;;;20.03;45.85;99964.45;1823952;78;21036;-66
2022/05/11 02:45:49;;;;;;;1.82;1.70;;;;;;;20.03;45.83;99961.75;1823756;78;21331;-66
2022/05/11 02:48:22;;;;;;;1.77;1.67;;;;;;;20.02;45.84;99963.61;1823655;77;21139;-66
2022/05/11 02:50:54;;;;;;;1.72;1.62;;;;;;;20.02;45.80;99958.75;1816468;77;21037;-66
2022/05/11 02:53:22;;;;;;;;;;;;;;;20.01;45.82;99957.93;1817934;79;21022;-66
2022/05/11 02:55:52;;;;;;;1.90;1.80;;;;;;;19.99;45.83;99957.33;1815092;79;20480;-65
2022/05/11 02:58:20;;;;;;;1.62;1.52;;;;;;;19.98;45.87;99958.91;1815120;79;22021;-66
2022/05/11 03:00:49;;;;;;;2.17;1.65;;;;;;;19.97;45.88;99962.63;1815166;79;20986;-66
2022/05/11 03:03:17;;;;;;;1.98;1.77;;;;;;;19.96;45.89;99959.66;1815079;79;20977;-66
2022/05/11 03:05:43;;;;;;;2.42;1.75;;;;;;;19.96;45.89;99961.00;1815052;79;21025;-65
2022/05/11 03:08:10;;;;;;;2.37;2.17;;;;;;;19.95;45.90;99960.19;1819402;77;21045;-66
2022/05/11 03:10:37;;;;;;;2.15;1.95;;;;;;;19.94;45.89;99958.52;1848299;77;21135;-65
2022/05/11 03:13:05;;;;;;;1.87;1.70;;;;;;;19.94;45.92;99961.22;1848401;77;20977;-65
2022/05/11 03:15:31;;;;;;;2.20;1.90;;;;;;;19.94;45.90;99960.41;1848275;77;21068;-65
2022/05/11 03:17:58;;;;;;;1.95;1.75;;;;;;;19.94;45.91;99955.01;1848556;77;21490;-66
2022/05/11 03:20:26;;;;;;;2.85;2.08;;;;;;;19.93;45.93;99960.91;1848370;77;20981;-65
2022/05/11 03:22:55;;;;;;;2.22;2.05;;;;;;;19.93;45.96;99960.91;1848417;77;21176;-65
2022/05/11 03:25:22;;;;;;;1.80;1.70;;;;;;;19.92;45.95;99960.62;1841587;77;21017;-66
2022/05/11 03:27:49;;;;;;;1.90;1.80;;;;;;;19.92;45.95;99958.45;1842325;77;20974;-66
2022/05/11 03:30:15;;;;;;;2.35;2.00;;;;;;;19.92;45.94;99957.11;1848642;77;20990;-65
2022/05/11 03:35:27;;;;;;;2.67;2.47;;;;;;;19.91;45.96;99964.34;1848373;77;21778;-67
2022/05/11 03:37:53;;;;;;;1.77;1.65;;;;;;;19.91;45.96;99964.88;1848291;77;21096;-65
2022/05/11 03:40:20;;;;;;;1.98;1.77;;;;;;;19.90;45.97;99965.95;1848373;77;20982;-66
2022/05/11 03:42:46;;;;;;;2.27;2.08;;;;;;;19.90;45.96;99967.30;1846845;77;21340;-66
2022/05/11 03:45:23;;;;;;;2.20;2.00;;;;;;;19.89;45.97;99970.48;1848700;77;21062;-66
2022/05/11 03:47:50;;;;;;;1.90;1.80;;;;;;;19.90;45.96;99967.30;1847839;77;21763;-66
2022/05/11 03:50:24;;;;;;;1.82;1.70;;;;;;;19.90;45.93;99972.69;1848173;77;20974;-66
2022/05/11 03:52:47;;;;;;;2.17;1.98;;;;;;;19.90;45.93;99974.03;1846963;77;21072;-66
2022/05/11 03:55:13;;;;;;;2.22;1.92;;;;;;;19.90;45.95;99975.38;1848409;77;21037;-66
2022/05/11 03:57:40;;;;;;;2.12;1.92;;;;;;;19.90;45.95;99977.55;1848305;77;21052;-66
2022/05/11 04:00:11;;;;;;;2.45;2.25;;;;;;;19.90;45.93;99977.55;1847352;77;21618;-66
2022/05/11 04:02:41;;;;;;;2.65;2.10;;;;;;;19.91;45.96;99976.48;1848154;77;20993;-66
2022/05/11 04:05:09;;;;;;;2.10;1.90;;;;;;;19.92;45.95;99978.67;1848487;77;21064;-66
2022/05/11 04:07:36;;;;;;;1.98;1.80;;;;;;;19.92;45.95;99975.45;1813571;77;21029;-66
2022/05/11 04:10:05;;;;;;;2.45;2.20;;;;;;;19.93;45.94;99978.42;1848388;77;21021;-66
2022/05/11 04:12:31;;;;;;;2.17;1.98;;;;;;;19.95;45.93;99979.56;1848836;77;21082;-66
2022/05/11 04:14:58;;;;;;;2.55;2.35;;;;;;;19.96;45.92;99975.30;1848519;77;21045;-65
2022/05/11 04:17:24;;;;;;;2.98;2.60;;;;;;;19.98;45.88;99983.17;1826663;77;21068;-66
2022/05/11 04:19:51;;;;;;;2.87;2.08;;;;;;;19.99;45.90;99983.45;1815161;79;21059;-66
2022/05/11 04:22:17;;;;;;;2.77;2.33;;;;;;;19.99;45.87;99984.30;1815313;79;21060;-66
2022/05/11 04:24:44;;;;;;;2.20;2.00;;;;;;;20.01;45.85;99981.35;1815274;79;21137;-65
2022/05/11 04:27:11;;;;;;;2.83;2.62;;;;;;;20.02;45.85;99981.67;1847667;77;21026;-65
2022/05/11 04:29:38;;;;;;;2.90;2.60;;;;;;;20.03;45.83;99983.33;1848448;77;21247;-66
2022/05/11 04:32:07;;;;;;;2.35;2.15;;;;;;;20.04;45.87;99981.73;1848475;77;21053;-66
2022/05/11 04:34:38;;;;;;;2.50;2.30;;;;;;;20.06;45.84;99980.70;1847737;77;21513;-66
2022/05/11 04:37:05;;;;;;;2.08;1.87;;;;;;;20.07;45.81;99980.98;1848458;77;21133;-66
2022/05/11 04:39:31;;;;;;;2.12;1.92;;;;;;;20.08;45.81;99978.06;1848439;77;21583;-65
2022/05/11 04:41:58;;;;;;;2.17;1.90;;;;;;;20.10;45.80;99971.11;1848467;77;20993;-66
2022/05/11 04:44:24;;;;;;;2.00;1.90;;;;;;;20.12;45.79;99978.45;1848499;77;20990;-66
2022/05/11 04:46:51;;;;;;;2.70;2.50;;;;;;;20.12;45.79;99975.22;1848461;77;20993;-65
2022/05/11 04:49:23;;;;;;;2.60;2.40;;;;;;;20.13;45.78;99975.53;1848730;77;21107;-65
2022/05/11 04:51:48;;;;;;;2.35;2.15;;;;;;;20.15;45.77;99973.97;1845323;77;21025;-65
2022/05/11 04:54:16;;;;;;;2.58;2.25;;;;;;;20.16;45.75;99977.76;1849051;77;21061;-66
2022/05/11 04:56:42;;;;;;;2.58;2.35;;;;;;;20.17;45.76;99979.42;1848456;77;21002;-66
2022/05/11 04:59:09;;;;;;;2.60;2.37;;;;;;;20.18;45.75;99977.54;1848468;77;21060;-66
2022/05/11 05:01:36;;;;;;;2.58;2.27;;;;;;;20.19;45.73;99976.50;1848907;77;21114;-67
2022/05/11 05:04:02;;;;;;;2.87;2.65;;;;;;;20.20;45.73;99972.23;1812171;77;21303;-66
2022/05/11 05:06:33;;;;;;;2.62;2.42;;;;;;;20.22;45.73;99978.23;1848400;77;21584;-65
2022/05/11 05:09:01;;;;;;;3.85;2.45;;;;;;;20.23;45.71;99976.34;1847230;77;21034;-66
2022/05/11 05:14:14;;;;;;;2.37;2.17;;;;;;;20.30;45.73;99977.10;1870374;76;22584;-66
2022/05/11 05:16:41;;;;;;;2.30;2.10;;;;;;;20.28;45.69;99977.01;1826671;78;21587;-66
2022/05/11 05:19:07;;;;;;;3.00;2.60;;;;;;;20.28;45.67;99977.86;1826573;78;21097;-66
2022/05/11 05:21:34;;;;;;;2.47;2.27;;;;;;;20.29;45.65;99973.27;1826463;78;21041;-67
2022/05/11 05:24:00;;;;;;;2.33;2.12;;;;;;;20.31;45.63;99978.73;1824843;78;21042;-66
2022/05/11 05:26:27;;;;;;;2.42;2.22;;;;;;;20.33;45.62;99986.61;1815901;78;21557;-66
2022/05/11 05:31:39;;;;;;;2.67;2.40;;;;;;;20.34;45.61;99982.84;1826544;78;21200;-66
2022/05/11 05:34:05;;;;;;;2.33;2.12;;;;;;;20.34;45.58;99982.84;1826514;78;21010;-66
2022/05/11 05:36:38;;;;;;;3.27;2.22;;;;;;;20.35;45.59;99989.90;1826577;78;20998;-66
2022/05/11 05:39:05;;;;;;;;;;;;;;;20.36;45.58;99992.38;1829204;78;21053;-66
2022/05/11 05:41:32;;;;;;;2.95;2.37;;;;;;;20.37;45.58;99989.96;1817209;78;20413;-67
2022/05/11 05:43:58;;;;;;;2.30;2.10;;;;;;;20.38;45.59;99991.63;1793962;79;21128;-65
2022/05/11 05:46:25;;;;;;;2.30;2.10;;;;;;;20.40;45.58;99991.41;1793797;80;21016;-67
2022/05/11 05:48:52;;;;;;;2.20;2.00;;;;;;;20.42;45.58;99990.65;1794122;79;21533;-66
2022/05/11 05:51:20;;;;;;;2.70;2.05;;;;;;;20.44;45.56;99988.55;1793932;80;20998;-66
2022/05/11 05:53:46;;;;;;;2.25;2.05;;;;;;;20.45;45.53;99982.08;1794023;80;21516;-66
2022/05/11 05:56:14;;;;;;;2.50;2.30;;;;;;;20.48;45.52;99979.47;1793975;80;21144;-66
2022/05/11 05:58:40;;;;;;;2.17;1.90;;;;;;;20.49;45.51;99977.06;1794951;78;21088;-66
2022/05/11 06:01:07;;;;;;;2.20;2.00;;;;;;;20.51;45.50;99979.81;1774175;80;21009;-66
2022/05/11 06:03:35;;;;;;;2.10;1.98;;;;;;;20.53;45.49;99988.54;1793987;80;20994;-65
2022/05/11 06:06:01;;;;;;;2.40;2.20;;;;;;;20.55;45.48;99976.14;1793932;80;21029;-66
2022/05/11 06:08:29;;;;;;;2.08;1.85;;;;;;;20.56;45.46;99985.37;1793901;79;21130;-66
2022/05/11 06:10:56;;;;;;;2.40;2.20;;;;;;;20.58;45.43;99979.75;1794004;80;21044;-66
2022/05/11 06:13:23;;;;;;;2.25;2.05;;;;;;;20.59;45.45;99978.20;1793855;80;21256;-66
2022/05/11 06:15:51;;;;;;;2.10;1.90;;;;;;;20.60;45.43;99974.44;1795331;78;21037;-66
2022/05/11 06:18:17;;;;;;;2.20;2.00;;;;;;;20.62;45.39;99966.12;1794314;80;21029;-66
2022/05/11 06:20:44;;;;;;;2.10;1.90;;;;;;;20.63;45.38;99969.13;1794249;79;21125;-66
2022/05/11 06:23:10;;;;;;;2.52;2.33;;;;;;;20.65;45.38;99975.63;1794240;80;20972;-66
2022/05/11 06:25:38;;;;;;;2.50;2.20;;;;;;;20.66;45.38;99969.19;1817753;78;21465;-67
2022/05/11 06:28:09;;;;;;;2.65;2.10;;;;;;;20.67;45.38;99970.83;1826145;78;21069;-66
2022/05/11 06:30:37;;;;;;;2.35;2.02;;;;;;;20.67;45.39;99963.57;1826303;78;21001;-66
2022/05/11 06:33:04;;;;;;;2.08;1.87;;;;;;;20.69;45.36;99964.16;1825611;78;21124;-66
2022/05/11 06:35:31;;;;;;;2.08;1.92;;;;;;;20.70;45.35;99960.39;1826157;78;21049;-65
2022/05/11 06:38:06;;;;;;;2.12;1.90;;;;;;;20.73;45.38;99959.13;1826550;78;21021;-66
2022/05/11 06:40:33;;;;;;;2.20;2.00;;;;;;;20.74;45.34;99954.83;1826144;78;21010;-67
2022/05/11 06:43:01;;;;;;;2.30;2.10;;;;;;;20.76;45.36;99947.86;1826235;78;21041;-66
2022/05/11 06:45:28;;;;;;;2.40;2.20;;;;;;;20.76;45.33;99947.86;1826184;78;21982;-66
2022/05/11 06:47:54;;;;;;;2.92;2.40;;;;;;;20.78;45.35;99946.59;1826336;78;21620;-67
2022/05/11 06:50:24;;;;;;;1.90;1.80;;;;;;;20.81;45.35;99945.30;1825020;78;21013;-65
2022/05/11 06:52:49;;;;;;;2.17;1.98;;;;;;;20.83;45.40;99953.17;1826579;78;20993;-66
2022/05/11 07:00:49;;;;;;;1.95;1.75;;;;;;;20.87;45.45;99940.32;1826154;78;21142;-65
2022/05/11 07:03:16;;;;;;;2.08;1.87;;;;;;;20.88;45.43;99937.94;1826248;78;20983;-66
2022/05/11 07:05:43;;;;;;;2.50;2.22;;;;;;;20.90;45.46;99934.98;1826162;78;21037;-66
2022/05/11 07:08:10;;;;;;;1.77;1.67;;;;;;;20.90;45.49;99935.82;1825354;78;20986;-66
2022/05/11 07:10:39;;;;;;;1.98;1.77;;;;;;;20.92;45.48;99921.56;1826043;78;21099;-66
2022/05/11 07:13:05;;;;;;;2.37;2.17;;;;;;;20.93;45.46;99920.48;1826079;78;21494;-65
2022/05/11 07:15:31;;;;;;;2.30;2.10;;;;;;;20.96;45.49;99917.34;1826013;78;21079;-66
2022/05/11 07:17:59;;;;;;;2.42;2.20;;;;;;;20.96;45.49;99915.17;1826097;78;20990;-66
2022/05/11 07:20:33;;;;;;;2.33;2.05;;;;;;;20.98;45.50;99909.83;1826362;78;21000;-66
2022/05/11 07:22:57;;;;;;;2.25;2.05;;;;;;;20.99;45.49;99908.75;1824737;78;21145;-66
2022/05/11 07:25:24;;;;;;;2.37;2.17;;;;;;;21.00;45.53;99913.11;1826024;78;20991;-66
2022/05/11 07:27:52;;;;;;;2.65;2.10;;;;;;;21.03;45.54;99911.81;1826129;78;21064;-66
2022/05/11 07:30:22;;;;;;;2.37;2.17;;;;;;;21.04;45.55;99912.13;1826171;78;20986;-66
2022/05/11 07:32:49;;;;;;;2.30;2.10;;;;;;;21.06;45.56;99907.84;1826126;78;21089;-66
2022/05/11 07:35:16;;;;;;;2.05;1.85;;;;;;;21.08;45.53;99916.54;1826080;78;21113;-66
2022/05/11 07:37:46;;;;;;;1.98;1.87;;;;;;;21.09;45.52;99910.06;1826041;78;21013;-66
2022/05/11 07:40:12;;;;;;;2.25;1.90;;;;;;;21.11;45.54;99912.84;1825030;78;21025;-66
2022/05/11 07:42:39;;;;;;;2.12;1.98;;;;;;;21.13;45.53;99903.98;1826283;78;21068;-66
2022/05/11 07:45:07;;;;;;;2.30;2.10;;;;;;;21.15;45.55;99904.56;1826106;78;21041;-65
2022/05/11 07:47:34;;;;;;;2.30;2.10;;;;;;;21.17;45.59;99905.66;1826120;78;21408;-66
2022/05/11 07:50:00;;;;;;;1.87;1.77;;;;;;;21.18;45.59;99895.16;1826014;78;20987;-65
2022/05/11 07:52:26;;;;;;;1.80;1.70;;;;;;;21.19;45.62;99897.64;1826073;78;21017;-66
2022/05/11 07:54:53;;;;;;;1.95;1.75;;;;;;;21.23;45.61;99898.50;1826253;78;21541;-66
2022/05/11 08:00:07;;;;;;;2.10;1.98;;;;;;;21.25;45.61;99897.23;1826118;78;21083;-67
2022/05/11 08:02:36;;;;;;;2.00;1.80;;;;;;;21.28;45.63;99892.69;1825980;78;21009;-66
2022/05/11 08:05:07;;;;;;;2.20;2.00;;;;;;;21.30;45.66;99893.81;1826278;78;21021;-66
2022/05/11 08:07:47;;;;;;;1.90;1.80;;;;;;;21.31;45.68;99894.13;1826048;78;21026;-66
2022/05/11 08:10:20;;;;;;;2.37;2.17;;;;;;;21.33;45.76;99894.70;1826109;78;21557;-66
2022/05/11 08:12:49;;;;;;;2.00;1.90;;;;;;;21.35;45.68;99888.53;1825993;78;21210;-66
2022/05/11 08:15:16;;;;;;;2.30;2.10;;;;;;;21.37;45.72;99893.17;1824942;78;21529;-65
2022/05/11 08:17:46;;;;;;;2.05;1.95;;;;;;;21.38;45.75;99884.00;1826035;78;21057;-66
2022/05/11 08:20:23;;;;;;;2.47;2.20;;;;;;;21.40;45.76;99887.28;1826163;78;20955;-65
2022/05/11 08:22:51;;;;;;;2.50;2.30;;;;;;;21.41;45.77;99887.05;1826054;78;20986;-66
2022/05/11 08:25:20;;;;;;;2.37;2.17;;;;;;;21.44;45.80;99883.61;1826046;78;21218;-65
2022/05/11 08:27:48;;;;;;;2.30;2.10;;;;;;;21.46;45.75;99880.14;1825726;78;21541;-66
2022/05/11 08:33:21;;;;;;;2.27;2.05;;;;;;;21.50;45.80;99877.26;1797157;78;21017;-66
2022/05/11 08:35:52;;;;;;;2.67;2.47;;;;;;;21.52;45.77;99871.11;1793589;80;21026;-66
2022/05/11 08:38:21;;;;;;;2.30;1.95;;;;;;;21.54;45.81;99874.40;1793626;79;21985;-67
2022/05/11 08:41:04;;;;;;;2.40;2.20;;;;;;;21.56;45.81;99864.17;1793866;80;20994;-66
2022/05/11 08:43:34;;;;;;;2.27;2.08;;;;;;;21.57;45.79;99866.61;1756178;79;21056;-67
2022/05/11 08:46:43;;;;;;;2.70;2.45;;;;;;;21.59;45.81;99867.73;1793923;80;21001;-67
2022/05/11 08:49:35;;;;;;;2.30;2.10;;;;;;;21.62;45.67;99869.97;1794885;78;21001;-66
2022/05/11 08:52:04;;;;;;;2.52;2.33;;;;;;;21.63;45.84;99868.90;1792788;79;26488;-66
2022/05/11 08:54:50;;;;;;;2.17;1.98;;;;;;;21.65;45.90;99864.07;1793394;80;21663;-67
2022/05/11 08:57:25;;;;;;;2.85;2.52;;;;;;;21.67;45.88;99867.90;1793001;79;21013;-67
2022/05/11 08:59:56;;;;;;;2.80;2.47;;;;;;;21.69;45.89;99852.26;1793706;80;21034;-66
2022/05/11 09:02:34;;;;;;;2.33;1.92;;;;;;;21.71;45.85;99846.08;1793697;80;21013;-66
2022/05/11 09:05:01;;;;;;;2.72;2.35;;;;;;;21.73;45.83;99849.36;1790818;78;21766;-66
2022/05/11 09:07:28;;;;;;;2.50;2.30;;;;;;;21.76;45.82;99840.25;1793762;80;21025;-65
2022/05/11 09:09:54;;;;;;;2.80;2.60;;;;;;;21.78;45.78;99834.61;1793817;80;22018;-67
2022/05/11 09:12:21;;;;;;;2.77;2.55;;;;;;;21.82;45.88;99832.25;1793561;80;21005;-66
2022/05/11 09:14:56;;;;;;;2.35;2.15;;;;;;;21.84;45.80;99833.64;1793466;79;20998;-66
2022/05/11 09:17:34;;;;;;;2.80;2.45;;;;;;;21.88;45.81;99838.05;1793724;80;21149;-67
2022/05/11 09:20:16;;;;;;;2.92;2.42;;;;;;;21.91;45.82;99834.88;1793791;79;21490;-68
2022/05/11 09:22:59;;;;;;;3.33;2.83;;;;;;;21.93;45.83;99834.91;1794757;78;28744;-66
2022/05/11 09:25:30;;;;;;;3.20;2.58;;;;;;;21.96;45.71;99833.60;1797594;78;21556;-66
2022/05/11 09:28:24;;;;;;;2.67;2.47;;;;;;;21.99;45.72;99824.48;1825740;77;21025;-67
2022/05/11 09:31:19;;;;;;;3.22;2.33;;;;;;;22.02;45.63;99829.95;1826293;78;21715;-67
2022/05/11 09:33:42;;;;;;;2.70;2.50;;;;;;;22.07;45.58;99821.92;1824918;78;20998;-67
2022/05/11 09:36:10;;;;;;;3.60;3.02;;;;;;;22.11;45.57;99823.61;1826446;78;21049;-66
2022/05/11 09:38:43;;;;;;;2.75;2.55;;;;;;;22.15;45.49;99829.64;1826073;78;21564;-67
2022/05/11 09:41:23;;;;;;;3.12;2.83;;;;;;;22.19;45.50;99828.63;1825398;78;20983;-66
2022/05/11 09:43:56;;;;;;;2.77;2.30;;;;;;;22.23;45.58;99810.02;1807932;78;21127;-68
2022/05/11 09:46:33;;;;;;;2.40;2.20;;;;;;;22.27;45.55;99818.81;1826336;78;21561;-67
2022/05/11 09:49:10;;;;;;;2.70;2.50;;;;;;;22.30;45.58;99807.48;1826452;78;21386;-67
2022/05/11 09:51:50;;;;;;;3.40;2.52;;;;;;;22.37;45.59;99812.22;1826095;78;20962;-66
2022/05/11 09:54:38;;;;;;;2.42;2.22;;;;;;;22.43;45.64;99810.42;1826407;78;21634;-66
2022/05/11 09:57:14;;;;;;;3.00;2.70;;;;;;;22.49;45.63;99814.86;1824841;78;21110;-66
2022/05/11 09:59:51;;;;;;;2.80;2.60;;;;;;;22.55;45.72;99807.10;1825570;78;21073;-67
2022/05/11 10:02:35;;;;;;;2.50;2.30;;;;;;;22.61;45.64;99803.13;1825414;78;21056;-67
2022/05/11 10:05:19;;;;;;;2.60;2.40;;;;;;;22.67;45.63;99810.27;1826274;78;21455;-67
2022/05/11 10:08:30;;;;;;;2.45;2.25;;;;;;;22.74;45.61;99811.75;1826244;78;21655;-67
2022/05/11 10:11:06;;;;;;;2.87;2.55;;;;;;;22.82;45.51;99814.57;1826163;78;21136;-67
2022/05/11 10:13:54;;;;;;;3.12;2.50;;;;;;;22.90;45.45;99805.21;1779879;80;21095;-65
2022/05/11 10:22:26;;;;;;;2.83;2.50;;;;;;;23.15;45.22;99793.95;1820489;78;21545;-67
2022/05/11 10:25:07;;;;;;;2.33;2.12;;;;;;;23.23;45.22;99786.74;1820779;78;21137;-67
2022/05/11 10:27:50;;;;;;;3.10;2.10;;;;;;;23.30;45.17;99794.70;1820593;78;20965;-67
2022/05/11 10:30:24;;;;;;;2.65;2.40;;;;;;;23.38;45.13;99789.39;1818078;78;21005;-67
2022/05/11 10:32:59;;;;;;;2.17;1.92;;;;;;;23.46;45.08;99789.75;1820237;78;21056;-67
2022/05/11 10:35:40;;;;;;;2.20;2.00;;;;;;;23.54;45.04;99783.88;1820072;78;21035;-67
2022/05/11 10:38:42;;;;;;;1.92;1.82;;;;;;;23.62;45.02;99776.38;1820449;78;21164;-66
2022/05/11 10:41:30;;;;;;;2.58;2.37;;;;;;;23.70;44.96;99774.57;1820034;78;21071;-67
2022/05/11 10:44:25;;;;;;;2.65;2.45;;;;;;;23.79;44.93;99769.02;1820434;78;20973;-67
2022/05/11 10:47:48;;;;;;;2.50;2.30;;;;;;;23.88;44.89;99770.20;1808398;78;21040;-67
2022/05/11 10:50:28;;;;;;;2.33;2.12;;;;;;;23.96;44.82;99762.14;1788180;80;21032;-66
2022/05/11 10:53:04;;;;;;;2.27;2.08;;;;;;;24.05;44.82;99763.84;1788239;80;20978;-66
2022/05/11 10:56:10;;;;;;;2.50;2.00;;;;;;;24.12;44.82;99758.48;1787896;80;21072;-67
2022/05/11 10:59:06;;;;;;;2.27;2.08;;;;;;;24.21;44.79;99756.69;1788150;80;20988;-67
2022/05/11 11:02:04;;;;;;;2.20;2.00;;;;;;;24.27;44.76;99752.39;1788040;80;21501;-66
2022/05/11 11:04:49;;;;;;;3.42;2.80;;;;;;;24.35;44.68;99753.81;1795912;78;20983;-65
2022/05/11 11:07:28;;;;;;;2.08;1.82;;;;;;;24.43;44.65;99747.90;1820356;78;21191;-66
2022/05/11 11:10:26;;;;;;;2.40;2.10;;;;;;;24.48;44.62;99741.70;1820170;78;21032;-66
2022/05/11 11:13:32;;;;;;;2.40;1.98;;;;;;;24.55;44.58;99750.48;1820255;78;20973;-65
2022/05/11 11:16:01;;;;;;;2.47;2.15;;;;;;;24.62;44.55;99744.82;1815040;78;20978;-66
2022/05/11 11:18:35;;;;;;;2.10;1.90;;;;;;;24.72;44.49;99739.45;1814810;79;21049;-66
2022/05/11 11:21:02;;;;;;;2.42;2.22;;;;;;;24.79;44.47;99734.61;1813305;78;21194;-66
2022/05/11 11:23:34;;;;;;;2.27;2.08;;;;;;;24.87;44.46;99749.60;1814388;78;21019;-66
2022/05/11 11:26:10;;;;;;;2.30;2.10;;;;;;;24.93;44.48;99737.68;1814527;77;21073;-66
2022/05/11 11:28:45;;;;;;;2.10;1.95;;;;;;;24.98;44.46;99737.72;1812137;79;21001;-66
2022/05/11 11:31:16;;;;;;;2.58;2.37;;;;;;;25.02;44.47;99727.14;1803178;79;21494;-67
2022/05/11 11:34:05;;;;;;;2.25;2.05;;;;;;;25.10;44.41;99730.70;1802880;79;21086;-70
2022/05/11 11:36:40;;;;;;;4.62;2.35;;;;;;;25.14;43.97;99731.00;1802719;79;20985;-70
2022/05/11 11:39:10;;;;;;;3.00;2.33;;;;;;;25.18;43.57;99729.39;1793072;79;20998;-69
2022/05/11 11:41:48;;;;;;;2.65;2.27;;;;;;;25.18;43.52;99723.40;1782455;80;21045;-68
2022/05/11 11:44:30;;;;;;;2.83;2.12;;;;;;;25.22;43.50;99720.45;1782506;80;21037;-69
2022/05/11 11:46:57;;;;;;;2.50;2.30;;;;;;;25.25;43.50;99710.97;1782825;79;21751;-69
2022/05/11 11:49:33;;;;;;;2.30;1.87;;;;;;;25.31;43.50;99709.34;1782438;80;20990;-69
2022/05/11 11:52:06;;;;;;;2.60;2.15;;;;;;;25.36;43.54;99700.93;1782437;80;21060;-69
2022/05/11 11:54:43;;;;;;;2.67;2.10;;;;;;;25.40;43.55;99700.15;1782360;80;21057;-69
2022/05/11 11:57:24;;;;;;;2.10;1.90;;;;;;;25.46;43.52;99701.80;1811942;79;21517;-68
2022/05/11 12:00:02;;;;;;;2.00;1.80;;;;;;;25.53;43.52;99706.97;1814472;79;21133;-69
2022/05/11 12:02:43;;;;;;;2.33;2.12;;;;;;;25.60;43.52;99704.81;1813755;78;21014;-68
2022/05/11 12:05:32;;;;;;;2.55;2.10;;;;;;;25.67;43.54;99698.58;1814846;79;21014;-68
2022/05/11 12:16:53;;;;;;;3.65;2.25;;;;;;;26.06;43.54;99696.75;1814555;79;20987;-71
2022/05/11 12:19:17;;;;;;;2.40;2.20;;;;;;;26.17;43.50;99699.46;1814678;78;21567;-68
2022/05/11 12:22:06;;;;;;;2.17;1.98;;;;;;;26.27;43.48;99686.67;1814436;78;20979;-70
2022/05/11 12:24:39;;;;;;;3.67;1.90;;;;;;;26.37;43.49;99680.95;1814291;78;21041;-69
2022/05/11 12:27:12;;;;;;;2.22;2.00;;;;;;;26.47;43.49;99683.66;1814568;78;21137;-68
2022/05/11 12:29:57;;;;;;;2.37;1.90;;;;;;;26.57;43.51;99679.54;1813493;78;20979;-68
2022/05/11 12:32:42;;;;;;;1.82;1.70;;;;;;;26.68;43.47;99675.73;1814540;78;21538;-69